sensor_id;sensor_type;location;lat;lon;timestamp;pressure;altitude;pressure_sealevel;temperature;humidity
5062;BME280;2351;50.812;12.872;2023-05-12T00:01:43;97839.38;;;10.86;73.01
5062;BME280;2351;50.812;12.872;2023-05-12T00:04:15;97843.97;;;10.84;73.23
5062;BME280;2351;50.812;12.872;2023-05-12T00:06:47;97852.34;;;10.79;73.38
5062;BME280;2351;50.812;12.872;2023-05-12T00:09:19;97843.25;;;10.72;73.60
5062;BME280;2351;50.812;12.872;2023-05-12T00:11:50;97858.00;;;10.65;74.00
5062;BME280;2351;50.812;12.872;2023-05-12T00:14:22;97849.91;;;10.57;74.11
5062;BME280;2351;50.812;12.872;2023-05-12T00:16:55;97855.47;;;10.53;74.65
5062;BME280;2351;50.812;12.872;2023-05-12T00:19:27;97857.13;;;10.54;75.00
5062;BME280;2351;50.812;12.872;2023-05-12T00:21:58;97854.38;;;10.56;75.15
5062;BME280;2351;50.812;12.872;2023-05-12T00:24:30;97853.41;;;10.57;75.32
5062;BME280;2351;50.812;12.872;2023-05-12T00:27:02;97850.75;;;10.57;75.58
5062;BME280;2351;50.812;12.872;2023-05-12T00:29:34;97852.28;;;10.60;75.99
5062;BME280;2351;50.812;12.872;2023-05-12T00:32:07;97849.38;;;10.63;76.25
5062;BME280;2351;50.812;12.872;2023-05-12T00:34:39;97851.03;;;10.64;76.12
5062;BME280;2351;50.812;12.872;2023-05-12T00:37:11;97845.50;;;10.67;76.59
5062;BME280;2351;50.812;12.872;2023-05-12T00:39:43;97850.50;;;10.70;76.74
5062;BME280;2351;50.812;12.872;2023-05-12T00:42:14;97854.13;;;10.69;76.93
5062;BME280;2351;50.812;12.872;2023-05-12T00:44:46;97845.22;;;10.70;77.05
5062;BME280;2351;50.812;12.872;2023-05-12T00:47:19;97852.03;;;10.73;77.15
5062;BME280;2351;50.812;12.872;2023-05-12T00:49:51;97858.16;;;10.73;77.35
5062;BME280;2351;50.812;12.872;2023-05-12T00:52:23;97853.84;;;10.72;77.52
5062;BME280;2351;50.812;12.872;2023-05-12T00:54:56;97856.63;;;10.70;77.95
5062;BME280;2351;50.812;12.872;2023-05-12T00:57:27;97850.38;;;10.72;78.15
5062;BME280;2351;50.812;12.872;2023-05-12T00:59:59;97849.41;;;10.73;78.34
5062;BME280;2351;50.812;12.872;2023-05-12T01:02:32;97849.25;;;10.74;78.88
5062;BME280;2351;50.812;12.872;2023-05-12T01:05:04;97846.34;;;10.77;78.80
5062;BME280;2351;50.812;12.872;2023-05-12T01:07:38;97839.38;;;10.76;78.97
5062;BME280;2351;50.812;12.872;2023-05-12T01:10:16;97840.22;;;10.77;79.38
5062;BME280;2351;50.812;12.872;2023-05-12T01:12:49;97842.00;;;10.76;79.43
5062;BME280;2351;50.812;12.872;2023-05-12T01:15:20;97838.53;;;10.76;79.79
5062;BME280;2351;50.812;12.872;2023-05-12T01:17:57;97841.03;;;10.77;80.02
5062;BME280;2351;50.812;12.872;2023-05-12T01:20:33;97846.59;;;10.74;79.98
5062;BME280;2351;50.812;12.872;2023-05-12T01:23:05;97846.03;;;10.70;80.30
5062;BME280;2351;50.812;12.872;2023-05-12T01:25:38;97841.88;;;10.68;80.40
5062;BME280;2351;50.812;12.872;2023-05-12T01:28:11;97841.72;;;10.69;80.73
5062;BME280;2351;50.812;12.872;2023-05-12T01:30:43;97838.94;;;10.71;80.78
5062;BME280;2351;50.812;12.872;2023-05-12T01:33:15;97837.97;;;10.72;81.02
5062;BME280;2351;50.812;12.872;2023-05-12T01:35:47;97844.94;;;10.73;81.11
5062;BME280;2351;50.812;12.872;2023-05-12T01:38:18;97838.81;;;10.73;81.38
5062;BME280;2351;50.812;12.872;2023-05-12T01:40:50;97837.13;;;10.72;81.35
5062;BME280;2351;50.812;12.872;2023-05-12T01:43:23;97833.94;;;10.68;81.59
5062;BME280;2351;50.812;12.872;2023-05-12T01:45:55;97836.00;;;10.64;81.64
5062;BME280;2351;50.812;12.872;2023-05-12T01:48:27;97842.41;;;10.62;81.59
5062;BME280;2351;50.812;12.872;2023-05-12T01:50:58;97841.00;;;10.58;81.69
5062;BME280;2351;50.812;12.872;2023-05-12T01:53:30;97843.19;;;10.52;81.88
5062;BME280;2351;50.812;12.872;2023-05-12T01:56:02;97841.66;;;10.50;82.07
5062;BME280;2351;50.812;12.872;2023-05-12T01:58:35;97840.97;;;10.48;82.12
5062;BME280;2351;50.812;12.872;2023-05-12T02:01:07;97844.56;;;10.47;82.12
5062;BME280;2351;50.812;12.872;2023-05-12T02:03:39;97838.03;;;10.41;81.87
5062;BME280;2351;50.812;12.872;2023-05-12T02:06:10;97847.16;;;10.37;81.77
5062;BME280;2351;50.812;12.872;2023-05-12T02:08:42;97845.03;;;10.31;81.85
5062;BME280;2351;50.812;12.872;2023-05-12T02:11:14;97850.88;;;10.24;82.05
5062;BME280;2351;50.812;12.872;2023-05-12T02:13:47;97845.00;;;10.21;82.21
5062;BME280;2351;50.812;12.872;2023-05-12T02:16:19;97845.25;;;10.18;81.92
5062;BME280;2351;50.812;12.872;2023-05-12T02:18:51;97842.44;;;10.09;81.83
5062;BME280;2351;50.812;12.872;2023-05-12T02:21:22;97839.34;;;10.04;81.96
5062;BME280;2351;50.812;12.872;2023-05-12T02:23:54;97841.81;;;9.96;82.03
5062;BME280;2351;50.812;12.872;2023-05-12T02:26:26;97837.63;;;9.93;81.87
5062;BME280;2351;50.812;12.872;2023-05-12T02:28:59;97848.72;;;9.87;82.10
5062;BME280;2351;50.812;12.872;2023-05-12T02:31:31;97844.66;;;9.83;82.36
5062;BME280;2351;50.812;12.872;2023-05-12T02:34:03;97837.13;;;9.78;82.75
5062;BME280;2351;50.812;12.872;2023-05-12T02:36:34;97841.25;;;9.71;82.56
5062;BME280;2351;50.812;12.872;2023-05-12T02:39:07;97844.28;;;9.67;83.20
5062;BME280;2351;50.812;12.872;2023-05-12T02:41:38;97854.47;;;9.50;83.08
5062;BME280;2351;50.812;12.872;2023-05-12T02:44:11;97852.25;;;9.34;83.74
5062;BME280;2351;50.812;12.872;2023-05-12T02:46:45;97848.94;;;9.21;83.30
5062;BME280;2351;50.812;12.872;2023-05-12T02:49:17;97850.53;;;9.12;84.01
5062;BME280;2351;50.812;12.872;2023-05-12T02:51:49;97848.97;;;9.09;84.21
5062;BME280;2351;50.812;12.872;2023-05-12T02:54:21;97846.34;;;9.09;84.51
5062;BME280;2351;50.812;12.872;2023-05-12T02:56:52;97845.25;;;9.12;84.43
5062;BME280;2351;50.812;12.872;2023-05-12T02:59:27;97847.66;;;9.15;84.88
5062;BME280;2351;50.812;12.872;2023-05-12T03:01:59;97845.59;;;9.18;84.96
5062;BME280;2351;50.812;12.872;2023-05-12T03:04:31;97844.63;;;9.19;84.90
5062;BME280;2351;50.812;12.872;2023-05-12T03:07:03;97836.56;;;9.21;85.36
5062;BME280;2351;50.812;12.872;2023-05-12T03:09:35;97848.56;;;9.25;85.31
5062;BME280;2351;50.812;12.872;2023-05-12T03:12:07;97853.59;;;9.28;85.38
5062;BME280;2351;50.812;12.872;2023-05-12T03:14:40;97854.31;;;9.30;85.95
5062;BME280;2351;50.812;12.872;2023-05-12T03:17:12;97850.72;;;9.31;85.65
5062;BME280;2351;50.812;12.872;2023-05-12T03:19:44;97845.28;;;9.33;86.28
5062;BME280;2351;50.812;12.872;2023-05-12T03:22:15;97854.06;;;9.33;86.27
5062;BME280;2351;50.812;12.872;2023-05-12T03:24:47;97850.56;;;9.33;86.41
5062;BME280;2351;50.812;12.872;2023-05-12T03:27:19;97856.72;;;9.33;86.85
5062;BME280;2351;50.812;12.872;2023-05-12T03:29:52;97844.47;;;9.32;87.07
5062;BME280;2351;50.812;12.872;2023-05-12T03:32:24;97841.81;;;9.32;87.03
5062;BME280;2351;50.812;12.872;2023-05-12T03:34:55;97844.47;;;9.32;87.16
5062;BME280;2351;50.812;12.872;2023-05-12T03:37:27;97846.13;;;9.33;87.24
5062;BME280;2351;50.812;12.872;2023-05-12T03:39:59;97851.16;;;9.37;87.34
5062;BME280;2351;50.812;12.872;2023-05-12T03:42:31;97843.94;;;9.39;87.36
5062;BME280;2351;50.812;12.872;2023-05-12T03:45:05;97844.53;;;9.42;87.68
5062;BME280;2351;50.812;12.872;2023-05-12T03:47:36;97855.69;;;9.46;87.82
5062;BME280;2351;50.812;12.872;2023-05-12T03:50:09;97850.16;;;9.49;88.01
5062;BME280;2351;50.812;12.872;2023-05-12T03:52:42;97851.81;;;9.50;88.03
5062;BME280;2351;50.812;12.872;2023-05-12T03:55:13;97845.69;;;9.49;88.05
5062;BME280;2351;50.812;12.872;2023-05-12T03:57:46;97851.56;;;9.53;88.55
5062;BME280;2351;50.812;12.872;2023-05-12T04:00:20;97841.72;;;9.55;88.31
5062;BME280;2351;50.812;12.872;2023-05-12T04:02:52;97840.75;;;9.56;88.75
5062;BME280;2351;50.812;12.872;2023-05-12T04:05:23;97846.75;;;9.58;88.76
5062;BME280;2351;50.812;12.872;2023-05-12T04:07:55;97852.72;;;9.60;88.60
5062;BME280;2351;50.812;12.872;2023-05-12T04:10:27;97852.72;;;9.60;88.91
5062;BME280;2351;50.812;12.872;2023-05-12T04:12:58;97856.78;;;9.64;89.23
5062;BME280;2351;50.812;12.872;2023-05-12T04:15:32;97852.09;;;9.68;89.21
5062;BME280;2351;50.812;12.872;2023-05-12T04:18:03;97851.94;;;9.70;89.28
5062;BME280;2351;50.812;12.872;2023-05-12T04:20:35;97855.31;;;9.72;89.18
5062;BME280;2351;50.812;12.872;2023-05-12T04:23:07;97855.06;;;9.75;89.37
5062;BME280;2351;50.812;12.872;2023-05-12T04:25:39;97850.34;;;9.78;89.57
5062;BME280;2351;50.812;12.872;2023-05-12T04:28:11;97856.19;;;9.82;90.05
5062;BME280;2351;50.812;12.872;2023-05-12T04:30:44;97858.59;;;9.85;90.08
5062;BME280;2351;50.812;12.872;2023-05-12T04:33:16;97866.41;;;9.87;90.15
5062;BME280;2351;50.812;12.872;2023-05-12T04:35:47;97869.75;;;9.89;90.60
5062;BME280;2351;50.812;12.872;2023-05-12T04:38:19;97861.44;;;9.93;90.57
5062;BME280;2351;50.812;12.872;2023-05-12T04:40:55;97860.91;;;10.00;90.66
5062;BME280;2351;50.812;12.872;2023-05-12T04:43:27;97865.66;;;10.06;91.23
5062;BME280;2351;50.812;12.872;2023-05-12T04:46:01;97869.59;;;10.12;91.10
5062;BME280;2351;50.812;12.872;2023-05-12T04:48:32;97867.53;;;10.15;91.44
5062;BME280;2351;50.812;12.872;2023-05-12T04:51:04;97870.63;;;10.20;91.42
5062;BME280;2351;50.812;12.872;2023-05-12T04:53:36;97873.72;;;10.25;91.52
5062;BME280;2351;50.812;12.872;2023-05-12T04:56:08;97874.03;;;10.32;91.88
5062;BME280;2351;50.812;12.872;2023-05-12T04:58:39;97871.56;;;10.40;91.86
5062;BME280;2351;50.812;12.872;2023-05-12T05:01:13;97872.56;;;10.49;91.88
5062;BME280;2351;50.812;12.872;2023-05-12T05:03:44;97866.75;;;10.55;92.13
5062;BME280;2351;50.812;12.872;2023-05-12T05:06:16;97873.19;;;10.63;92.11
5062;BME280;2351;50.812;12.872;2023-05-12T05:08:48;97870.13;;;10.67;92.29
5062;BME280;2351;50.812;12.872;2023-05-12T05:11:19;97868.03;;;10.71;92.26
5062;BME280;2351;50.812;12.872;2023-05-12T05:13:51;97869.44;;;10.75;92.27
5062;BME280;2351;50.812;12.872;2023-05-12T05:16:25;97876.03;;;10.81;92.52
5062;BME280;2351;50.812;12.872;2023-05-12T05:18:56;97873.09;;;10.84;92.28
5062;BME280;2351;50.812;12.872;2023-05-12T05:21:28;97881.63;;;10.88;92.08
5062;BME280;2351;50.812;12.872;2023-05-12T05:24:00;97880.22;;;10.93;92.28
5062;BME280;2351;50.812;12.872;2023-05-12T05:26:31;97880.78;;;10.97;92.55
5062;BME280;2351;50.812;12.872;2023-05-12T05:29:03;97882.19;;;11.01;92.57
5062;BME280;2351;50.812;12.872;2023-05-12T05:31:36;97887.94;;;11.06;92.56
5062;BME280;2351;50.812;12.872;2023-05-12T05:34:08;97891.00;;;11.11;92.76
5062;BME280;2351;50.812;12.872;2023-05-12T05:36:40;97893.94;;;11.18;92.62
5062;BME280;2351;50.812;12.872;2023-05-12T05:39:11;97891.56;;;11.25;92.81
5062;BME280;2351;50.812;12.872;2023-05-12T05:41:43;97885.59;;;11.33;92.77
5062;BME280;2351;50.812;12.872;2023-05-12T05:44:15;97893.00;;;11.39;93.02
5062;BME280;2351;50.812;12.872;2023-05-12T05:46:48;97894.50;;;11.41;92.71
5062;BME280;2351;50.812;12.872;2023-05-12T05:49:20;97889.09;;;11.43;92.46
5062;BME280;2351;50.812;12.872;2023-05-12T05:51:52;97892.28;;;11.47;92.28
5062;BME280;2351;50.812;12.872;2023-05-12T05:54:24;97897.44;;;11.48;91.98
5062;BME280;2351;50.812;12.872;2023-05-12T05:56:56;97899.69;;;11.53;91.97
5062;BME280;2351;50.812;12.872;2023-05-12T05:59:30;97892.84;;;11.60;91.89
5062;BME280;2351;50.812;12.872;2023-05-12T06:02:04;97903.59;;;11.68;91.77
5062;BME280;2351;50.812;12.872;2023-05-12T06:04:35;97904.13;;;11.72;91.55
5062;BME280;2351;50.812;12.872;2023-05-12T06:07:07;97899.78;;;11.81;91.35
5062;BME280;2351;50.812;12.872;2023-05-12T06:09:39;97904.41;;;11.88;91.37
5062;BME280;2351;50.812;12.872;2023-05-12T06:12:10;97898.41;;;11.96;91.24
5062;BME280;2351;50.812;12.872;2023-05-12T06:14:42;97895.75;;;12.06;90.99
5062;BME280;2351;50.812;12.872;2023-05-12T06:17:15;97892.38;;;12.14;90.84
5062;BME280;2351;50.812;12.872;2023-05-12T06:19:47;97899.50;;;12.23;90.54
5062;BME280;2351;50.812;12.872;2023-05-12T06:22:19;97899.59;;;12.31;90.54
5062;BME280;2351;50.812;12.872;2023-05-12T06:24:51;97899.03;;;12.38;90.33
5062;BME280;2351;50.812;12.872;2023-05-12T06:27:23;97903.06;;;12.42;89.86
5062;BME280;2351;50.812;12.872;2023-05-12T06:29:54;97905.97;;;12.48;89.64
5062;BME280;2351;50.812;12.872;2023-05-12T06:32:28;97909.03;;;12.54;89.25
5062;BME280;2351;50.812;12.872;2023-05-12T06:34:59;97904.00;;;12.50;88.18
5062;BME280;2351;50.812;12.872;2023-05-12T06:37:31;97904.84;;;12.51;87.71
5062;BME280;2351;50.812;12.872;2023-05-12T06:40:04;97909.56;;;12.57;87.74
5062;BME280;2351;50.812;12.872;2023-05-12T06:42:36;97913.31;;;12.64;87.44
5062;BME280;2351;50.812;12.872;2023-05-12T06:45:09;97909.78;;;12.74;87.28
5062;BME280;2351;50.812;12.872;2023-05-12T06:47:43;97909.72;;;12.84;87.08
5062;BME280;2351;50.812;12.872;2023-05-12T06:50:15;97910.00;;;12.90;86.77
5062;BME280;2351;50.812;12.872;2023-05-12T06:52:47;97910.38;;;12.95;85.82
5062;BME280;2351;50.812;12.872;2023-05-12T06:55:20;97909.63;;;13.03;85.67
5062;BME280;2351;50.812;12.872;2023-05-12T06:57:51;97909.38;;;12.96;81.26
5062;BME280;2351;50.812;12.872;2023-05-12T07:00:25;97908.22;;;13.09;82.83
5062;BME280;2351;50.812;12.872;2023-05-12T07:02:58;97906.88;;;13.23;81.99
5062;BME280;2351;50.812;12.872;2023-05-12T07:05:30;97913.41;;;13.29;81.63
5062;BME280;2351;50.812;12.872;2023-05-12T07:08:02;97911.22;;;13.42;81.57
5062;BME280;2351;50.812;12.872;2023-05-12T07:10:34;97909.34;;;13.52;80.99
5062;BME280;2351;50.812;12.872;2023-05-12T07:13:07;97907.28;;;13.64;81.35
5062;BME280;2351;50.812;12.872;2023-05-12T07:15:39;97910.22;;;13.79;81.11
5062;BME280;2351;50.812;12.872;2023-05-12T07:18:12;97907.13;;;13.84;79.08
5062;BME280;2351;50.812;12.872;2023-05-12T07:20:44;97907.34;;;13.91;76.16
5062;BME280;2351;50.812;12.872;2023-05-12T07:23:16;97903.75;;;14.00;77.59
5062;BME280;2351;50.812;12.872;2023-05-12T07:25:48;97903.13;;;14.06;72.27
5062;BME280;2351;50.812;12.872;2023-05-12T07:28:19;97900.84;;;13.93;69.73
5062;BME280;2351;50.812;12.872;2023-05-12T07:30:51;97906.72;;;13.97;68.78
5062;BME280;2351;50.812;12.872;2023-05-12T07:33:24;97905.16;;;14.12;69.27
5062;BME280;2351;50.812;12.872;2023-05-12T07:35:56;97897.75;;;14.24;67.85
5062;BME280;2351;50.812;12.872;2023-05-12T07:38:27;97900.38;;;14.42;68.60
5062;BME280;2351;50.812;12.872;2023-05-12T07:40:59;97905.22;;;14.47;65.64
5062;BME280;2351;50.812;12.872;2023-05-12T07:43:31;97903.09;;;14.59;65.44
5062;BME280;2351;50.812;12.872;2023-05-12T07:46:03;97898.38;;;14.79;66.00
5062;BME280;2351;50.812;12.872;2023-05-12T07:48:36;97896.09;;;14.84;64.76
5062;BME280;2351;50.812;12.872;2023-05-12T07:51:09;97901.59;;;14.91;64.71
5062;BME280;2351;50.812;12.872;2023-05-12T07:53:41;97893.69;;;15.08;64.99
5062;BME280;2351;50.812;12.872;2023-05-12T07:56:12;97900.84;;;15.24;64.55
5062;BME280;2351;50.812;12.872;2023-05-12T07:58:44;97897.72;;;15.36;63.92
5062;BME280;2351;50.812;12.872;2023-05-12T08:01:16;97898.41;;;15.47;63.73
5062;BME280;2351;50.812;12.872;2023-05-12T08:03:49;97893.28;;;15.62;63.45
5062;BME280;2351;50.812;12.872;2023-05-12T08:06:21;97896.09;;;15.69;62.19
5062;BME280;2351;50.812;12.872;2023-05-12T08:08:53;97898.28;;;15.65;61.62
5062;BME280;2351;50.812;12.872;2023-05-12T08:11:27;97896.44;;;15.74;62.54
5062;BME280;2351;50.812;12.872;2023-05-12T08:13:58;97892.75;;;15.83;62.46
5062;BME280;2351;50.812;12.872;2023-05-12T08:16:30;97901.44;;;16.02;62.97
5062;BME280;2351;50.812;12.872;2023-05-12T08:19:03;97900.09;;;16.31;63.07
5062;BME280;2351;50.812;12.872;2023-05-12T08:21:35;97895.03;;;16.44;60.30
5062;BME280;2351;50.812;12.872;2023-05-12T08:24:07;97904.72;;;16.53;58.41
5062;BME280;2351;50.812;12.872;2023-05-12T08:26:39;97899.00;;;16.65;58.09
5062;BME280;2351;50.812;12.872;2023-05-12T08:29:10;97902.78;;;16.79;57.43
5062;BME280;2351;50.812;12.872;2023-05-12T08:31:42;97894.34;;;17.07;57.54
5062;BME280;2351;50.812;12.872;2023-05-12T08:34:15;97899.00;;;17.13;56.28
5062;BME280;2351;50.812;12.872;2023-05-12T08:36:47;97900.00;;;17.12;54.36
5062;BME280;2351;50.812;12.872;2023-05-12T08:39:19;97902.91;;;17.02;54.28
5062;BME280;2351;50.812;12.872;2023-05-12T08:41:54;97908.72;;;17.06;54.35
5062;BME280;2351;50.812;12.872;2023-05-12T08:44:27;97906.78;;;17.23;54.27
5062;BME280;2351;50.812;12.872;2023-05-12T08:47:00;97902.66;;;17.20;52.64
5062;BME280;2351;50.812;12.872;2023-05-12T08:49:35;97899.91;;;17.28;53.36
5062;BME280;2351;50.812;12.872;2023-05-12T08:52:08;97892.25;;;17.49;52.62
5062;BME280;2351;50.812;12.872;2023-05-12T08:54:40;97889.22;;;17.75;52.30
5062;BME280;2351;50.812;12.872;2023-05-12T08:57:12;97880.41;;;18.13;52.20
5062;BME280;2351;50.812;12.872;2023-05-12T08:59:44;97882.56;;;18.47;48.67
5062;BME280;2351;50.812;12.872;2023-05-12T09:02:17;97886.81;;;18.42;48.11
5062;BME280;2351;50.812;12.872;2023-05-12T09:04:53;97883.09;;;18.43;48.74
5062;BME280;2351;50.812;12.872;2023-05-12T09:07:25;97885.56;;;18.14;48.83
5062;BME280;2351;50.812;12.872;2023-05-12T09:09:57;97884.75;;;18.14;49.46
5062;BME280;2351;50.812;12.872;2023-05-12T09:12:33;97888.06;;;18.16;50.81
5062;BME280;2351;50.812;12.872;2023-05-12T09:15:10;97885.69;;;18.51;50.88
5062;BME280;2351;50.812;12.872;2023-05-12T09:17:43;97871.28;;;18.67;47.79
5062;BME280;2351;50.812;12.872;2023-05-12T09:20:16;97872.75;;;18.55;47.44
5062;BME280;2351;50.812;12.872;2023-05-12T09:22:49;97885.13;;;18.56;48.07
5062;BME280;2351;50.812;12.872;2023-05-12T09:25:21;97882.72;;;18.61;47.70
5062;BME280;2351;50.812;12.872;2023-05-12T09:27:54;97881.44;;;19.02;46.43
5062;BME280;2351;50.812;12.872;2023-05-12T09:30:28;97878.66;;;19.32;46.22
5062;BME280;2351;50.812;12.872;2023-05-12T09:33:05;97886.41;;;19.41;42.97
5062;BME280;2351;50.812;12.872;2023-05-12T09:35:40;97880.09;;;19.71;44.04
5062;BME280;2351;50.812;12.872;2023-05-12T09:38:13;97880.16;;;19.78;38.88
5062;BME280;2351;50.812;12.872;2023-05-12T09:40:45;97881.34;;;19.75;37.29
5062;BME280;2351;50.812;12.872;2023-05-12T09:43:16;97886.22;;;19.65;37.07
5062;BME280;2351;50.812;12.872;2023-05-12T09:45:48;97874.91;;;19.48;36.01
5062;BME280;2351;50.812;12.872;2023-05-12T09:48:21;97885.81;;;19.24;36.71
5062;BME280;2351;50.812;12.872;2023-05-12T09:50:54;97878.59;;;19.25;36.71
5062;BME280;2351;50.812;12.872;2023-05-12T09:53:26;97878.09;;;19.58;36.07
5062;BME280;2351;50.812;12.872;2023-05-12T09:55:58;97879.63;;;19.09;35.23
5062;BME280;2351;50.812;12.872;2023-05-12T09:58:30;97881.34;;;18.80;36.72
5062;BME280;2351;50.812;12.872;2023-05-12T10:01:02;97883.28;;;18.56;35.93
5062;BME280;2351;50.812;12.872;2023-05-12T10:03:35;97890.03;;;18.67;37.88
5062;BME280;2351;50.812;12.872;2023-05-12T10:06:11;97885.59;;;18.29;37.21
5062;BME280;2351;50.812;12.872;2023-05-12T10:08:48;97897.22;;;18.21;37.76
5062;BME280;2351;50.812;12.872;2023-05-12T10:11:21;97881.69;;;18.32;38.22
5062;BME280;2351;50.812;12.872;2023-05-12T10:13:53;97885.88;;;18.34;38.48
5062;BME280;2351;50.812;12.872;2023-05-12T10:16:26;97899.03;;;18.21;38.42
5062;BME280;2351;50.812;12.872;2023-05-12T10:18:59;97895.66;;;18.27;38.91
5062;BME280;2351;50.812;12.872;2023-05-12T10:21:32;97893.06;;;18.49;39.30
5062;BME280;2351;50.812;12.872;2023-05-12T10:24:05;97886.91;;;18.63;39.30
5062;BME280;2351;50.812;12.872;2023-05-12T10:26:37;97887.16;;;18.69;39.09
5062;BME280;2351;50.812;12.872;2023-05-12T10:29:11;97885.88;;;18.64;38.12
5062;BME280;2351;50.812;12.872;2023-05-12T10:31:43;97893.44;;;18.61;38.40
5062;BME280;2351;50.812;12.872;2023-05-12T10:34:16;97901.19;;;18.56;38.36
5062;BME280;2351;50.812;12.872;2023-05-12T10:36:50;97899.94;;;18.51;39.40
5062;BME280;2351;50.812;12.872;2023-05-12T10:39:26;97903.84;;;18.11;39.08
5062;BME280;2351;50.812;12.872;2023-05-12T10:42:04;97912.66;;;17.96;39.02
5062;BME280;2351;50.812;12.872;2023-05-12T10:44:48;97898.97;;;17.91;39.34
5062;BME280;2351;50.812;12.872;2023-05-12T10:47:22;97897.47;;;18.12;39.51
5062;BME280;2351;50.812;12.872;2023-05-12T10:49:56;97896.63;;;18.11;39.14
5062;BME280;2351;50.812;12.872;2023-05-12T10:52:30;97898.78;;;18.16;40.08
5062;BME280;2351;50.812;12.872;2023-05-12T10:55:03;97902.47;;;18.15;40.11
5062;BME280;2351;50.812;12.872;2023-05-12T10:57:45;97901.00;;;18.27;41.16
5062;BME280;2351;50.812;12.872;2023-05-12T11:00:21;97902.31;;;18.31;40.91
5062;BME280;2351;50.812;12.872;2023-05-12T11:02:54;97891.41;;;18.48;40.69
5062;BME280;2351;50.812;12.872;2023-05-12T11:05:32;97893.72;;;18.66;41.25
5062;BME280;2351;50.812;12.872;2023-05-12T11:08:05;97895.94;;;19.07;40.58
5062;BME280;2351;50.812;12.872;2023-05-12T11:10:40;97892.22;;;19.45;40.37
5062;BME280;2351;50.812;12.872;2023-05-12T11:13:11;97890.84;;;19.71;40.48
5062;BME280;2351;50.812;12.872;2023-05-12T11:15:43;97899.66;;;19.65;37.11
5062;BME280;2351;50.812;12.872;2023-05-12T11:18:19;97902.94;;;19.23;37.05
5062;BME280;2351;50.812;12.872;2023-05-12T11:20:51;97902.94;;;18.93;38.93
5062;BME280;2351;50.812;12.872;2023-05-12T11:23:25;97896.78;;;18.78;40.07
5062;BME280;2351;50.812;12.872;2023-05-12T11:25:58;97902.47;;;19.20;38.80
5062;BME280;2351;50.812;12.872;2023-05-12T11:28:38;97897.59;;;18.93;39.15
5062;BME280;2351;50.812;12.872;2023-05-12T11:31:16;97899.63;;;19.43;37.57
5062;BME280;2351;50.812;12.872;2023-05-12T11:33:48;97891.69;;;19.35;37.28
5062;BME280;2351;50.812;12.872;2023-05-12T11:36:20;97894.75;;;19.53;37.54
5062;BME280;2351;50.812;12.872;2023-05-12T11:38:53;97913.06;;;19.43;36.03
5062;BME280;2351;50.812;12.872;2023-05-12T11:41:25;97902.66;;;18.88;35.96
5062;BME280;2351;50.812;12.872;2023-05-12T11:43:57;97902.34;;;19.28;36.68
5062;BME280;2351;50.812;12.872;2023-05-12T11:46:29;97900.38;;;19.37;36.64
5062;BME280;2351;50.812;12.872;2023-05-12T11:49:00;97910.00;;;19.68;35.70
5062;BME280;2351;50.812;12.872;2023-05-12T11:51:33;97905.66;;;19.67;36.71
5062;BME280;2351;50.812;12.872;2023-05-12T11:54:06;97902.41;;;19.93;37.14
5062;BME280;2351;50.812;12.872;2023-05-12T11:56:46;97908.47;;;20.02;35.55
5062;BME280;2351;50.812;12.872;2023-05-12T11:59:25;97914.66;;;20.24;36.64
5062;BME280;2351;50.812;12.872;2023-05-12T12:02:02;97912.09;;;20.44;35.92
5062;BME280;2351;50.812;12.872;2023-05-12T12:04:35;97916.41;;;20.39;35.69
5062;BME280;2351;50.812;12.872;2023-05-12T12:07:07;97918.78;;;20.55;35.69
5062;BME280;2351;50.812;12.872;2023-05-12T12:09:40;97905.59;;;20.67;36.89
5062;BME280;2351;50.812;12.872;2023-05-12T12:12:12;97918.72;;;20.77;35.96
5062;BME280;2351;50.812;12.872;2023-05-12T12:14:44;97915.31;;;20.05;37.09
5062;BME280;2351;50.812;12.872;2023-05-12T12:17:16;97922.44;;;19.54;35.90
5062;BME280;2351;50.812;12.872;2023-05-12T12:19:47;97922.41;;;19.69;37.12
5062;BME280;2351;50.812;12.872;2023-05-12T12:22:19;97925.19;;;19.61;36.70
5062;BME280;2351;50.812;12.872;2023-05-12T12:24:52;97924.88;;;19.49;35.86
5062;BME280;2351;50.812;12.872;2023-05-12T12:27:24;97918.69;;;19.70;36.40
5062;BME280;2351;50.812;12.872;2023-05-12T12:29:56;97913.34;;;19.92;36.66
5062;BME280;2351;50.812;12.872;2023-05-12T12:32:28;97931.31;;;19.91;37.24
5062;BME280;2351;50.812;12.872;2023-05-12T12:35:00;97927.75;;;19.47;37.95
5062;BME280;2351;50.812;12.872;2023-05-12T12:37:33;97930.88;;;19.51;39.86
5062;BME280;2351;50.812;12.872;2023-05-12T12:40:08;97918.91;;;19.32;39.32
5062;BME280;2351;50.812;12.872;2023-05-12T12:42:40;97934.25;;;19.38;39.34
5062;BME280;2351;50.812;12.872;2023-05-12T12:45:11;97928.31;;;19.42;39.22
5062;BME280;2351;50.812;12.872;2023-05-12T12:47:43;97935.47;;;19.35;38.74
5062;BME280;2351;50.812;12.872;2023-05-12T12:50:15;97935.47;;;19.35;39.13
5062;BME280;2351;50.812;12.872;2023-05-12T12:52:47;97933.88;;;19.41;38.93
5062;BME280;2351;50.812;12.872;2023-05-12T12:55:20;97940.97;;;19.49;38.73
5062;BME280;2351;50.812;12.872;2023-05-12T12:57:52;97938.50;;;19.47;38.74
5062;BME280;2351;50.812;12.872;2023-05-12T13:00:24;97937.50;;;19.33;38.18
5062;BME280;2351;50.812;12.872;2023-05-12T13:02:56;97943.03;;;18.95;38.17
5062;BME280;2351;50.812;12.872;2023-05-12T13:05:29;97935.13;;;19.23;38.33
5062;BME280;2351;50.812;12.872;2023-05-12T13:08:01;97940.94;;;19.27;38.05
5062;BME280;2351;50.812;12.872;2023-05-12T13:10:34;97930.59;;;19.46;37.81
5062;BME280;2351;50.812;12.872;2023-05-12T13:13:06;97943.06;;;19.53;37.84
5062;BME280;2351;50.812;12.872;2023-05-12T13:15:41;97932.13;;;19.33;37.67
5062;BME280;2351;50.812;12.872;2023-05-12T13:18:12;97938.84;;;19.07;37.76
5062;BME280;2351;50.812;12.872;2023-05-12T13:20:44;97932.81;;;19.05;38.14
5062;BME280;2351;50.812;12.872;2023-05-12T13:23:16;97938.00;;;18.77;37.23
5062;BME280;2351;50.812;12.872;2023-05-12T13:25:49;97934.84;;;18.88;37.12
5062;BME280;2351;50.812;12.872;2023-05-12T13:28:24;97931.13;;;18.89;37.22
5062;BME280;2351;50.812;12.872;2023-05-12T13:30:56;97938.13;;;18.99;38.09
5062;BME280;2351;50.812;12.872;2023-05-12T13:33:27;97938.44;;;18.80;36.98
5062;BME280;2351;50.812;12.872;2023-05-12T13:35:59;97937.19;;;18.61;37.33
5062;BME280;2351;50.812;12.872;2023-05-12T13:38:31;97937.19;;;19.06;38.90
5062;BME280;2351;50.812;12.872;2023-05-12T13:41:05;97933.63;;;19.57;36.90